createdAt,value
2023-05-16T00:00:40.863Z,3.00
2023-05-16T00:03:08.082Z,3.30
2023-05-16T00:08:13.163Z,3.10
2023-05-16T00:10:40.197Z,3.30
2023-05-16T00:13:07.385Z,3.40
2023-05-16T00:15:34.810Z,3.70
2023-05-16T00:18:01.860Z,3.80
2023-05-16T00:20:29.276Z,3.40
2023-05-16T00:22:56.582Z,3.60
2023-05-16T00:25:23.570Z,3.60
2023-05-16T00:27:50.514Z,3.50
2023-05-16T00:30:17.592Z,3.90
2023-05-16T00:32:44.851Z,3.20
2023-05-16T00:35:12.570Z,3.50
2023-05-16T00:37:39.712Z,4.00
2023-05-16T00:40:07.577Z,4.00
2023-05-16T00:42:37.163Z,3.70
2023-05-16T00:45:04.897Z,3.70
2023-05-16T00:47:32.380Z,3.50
2023-05-16T00:49:59.630Z,4.40
2023-05-16T00:52:26.721Z,4.10
2023-05-16T00:54:53.716Z,3.70
2023-05-16T00:57:20.875Z,4.00
2023-05-16T00:59:47.888Z,3.60
2023-05-16T01:02:14.946Z,3.80
2023-05-16T01:04:43.035Z,3.70
2023-05-16T01:07:10.164Z,3.50
2023-05-16T01:09:37.455Z,4.50
2023-05-16T01:12:49.446Z,3.90
2023-05-16T01:15:25.012Z,3.70
2023-05-16T01:18:04.659Z,3.80
2023-05-16T01:20:52.874Z,3.60
2023-05-16T01:23:55.003Z,4.00
2023-05-16T01:26:26.716Z,3.60
2023-05-16T01:31:21.777Z,3.40
2023-05-16T01:33:49.002Z,4.20
2023-05-16T01:36:53.724Z,3.70
2023-05-16T01:39:44.552Z,3.60
2023-05-16T01:42:15.197Z,4.40
2023-05-16T01:44:45.900Z,4.00
2023-05-16T01:47:15.116Z,4.20
2023-05-16T01:50:00.418Z,4.60
2023-05-16T01:52:38.194Z,3.90
2023-05-16T01:55:05.980Z,4.00
2023-05-16T01:57:33.170Z,4.70
2023-05-16T02:00:00.570Z,4.00
2023-05-16T02:02:27.765Z,4.10
2023-05-16T02:04:54.748Z,3.70
2023-05-16T02:07:21.763Z,4.00
2023-05-16T02:09:48.857Z,3.90
2023-05-16T02:12:16.393Z,4.20
2023-05-16T02:14:43.336Z,4.10
2023-05-16T02:17:10.321Z,4.00
2023-05-16T02:19:37.280Z,4.00
2023-05-16T02:22:04.327Z,4.70
2023-05-16T02:24:33.338Z,4.10
2023-05-16T02:27:01.902Z,4.60
2023-05-16T02:29:29.015Z,4.40
2023-05-16T02:31:56.061Z,3.70
2023-05-16T02:34:23.092Z,5.10
2023-05-16T02:36:50.115Z,4.00
2023-05-16T02:39:17.065Z,3.90
2023-05-16T02:41:43.996Z,4.50
2023-05-16T02:44:11.214Z,3.80
2023-05-16T02:46:38.224Z,3.70
2023-05-16T02:49:05.817Z,3.90
2023-05-16T02:51:32.786Z,3.80
2023-05-16T02:54:01.298Z,3.80
2023-05-16T02:56:28.343Z,3.50
2023-05-16T02:58:55.748Z,3.70
2023-05-16T03:01:23.055Z,3.50
2023-05-16T03:03:50.240Z,4.10
2023-05-16T03:06:17.464Z,4.40
2023-05-16T03:08:44.379Z,3.80
2023-05-16T03:11:11.426Z,4.20
2023-05-16T03:13:41.863Z,4.50
2023-05-16T03:16:09.020Z,4.30
2023-05-16T03:18:36.078Z,4.00
2023-05-16T03:21:04.364Z,3.90
2023-05-16T03:23:31.308Z,3.90
2023-05-16T03:25:58.332Z,3.90
2023-05-16T03:28:25.429Z,3.80
2023-05-16T03:30:55.168Z,4.20
2023-05-16T03:33:22.230Z,4.20
2023-05-16T03:35:49.191Z,3.40
2023-05-16T03:38:16.107Z,3.60
2023-05-16T03:40:44.318Z,3.80
2023-05-16T03:43:11.266Z,3.90
2023-05-16T03:45:38.438Z,4.30
2023-05-16T03:48:05.601Z,4.00
2023-05-16T03:50:32.702Z,4.00
2023-05-16T03:52:59.667Z,4.40
2023-05-16T03:55:27.089Z,4.90
2023-05-16T03:57:54.335Z,5.40
2023-05-16T04:00:21.439Z,5.30
2023-05-16T04:02:48.636Z,4.70
2023-05-16T04:05:15.959Z,4.70
2023-05-16T04:07:43.003Z,4.70
2023-05-16T04:10:10.651Z,5.00
2023-05-16T04:12:37.748Z,4.90
2023-05-16T04:15:05.764Z,5.30
2023-05-16T04:17:33.189Z,4.60
2023-05-16T04:20:01.007Z,4.80
2023-05-16T04:22:27.960Z,4.80
2023-05-16T04:24:55.252Z,4.70
2023-05-16T04:27:22.239Z,5.10
2023-05-16T04:29:49.423Z,4.70
2023-05-16T04:32:17.501Z,4.80
2023-05-16T04:34:46.972Z,4.40
2023-05-16T04:37:14.722Z,4.80
2023-05-16T04:39:42.851Z,4.60
2023-05-16T04:42:10.069Z,4.70
2023-05-16T04:44:37.793Z,4.70
2023-05-16T04:47:05.302Z,4.30
2023-05-16T04:49:32.213Z,4.50
2023-05-16T04:51:59.721Z,3.90
2023-05-16T04:54:27.227Z,3.60
2023-05-16T04:56:54.846Z,4.40
2023-05-16T04:59:22.070Z,4.40
2023-05-16T05:01:49.145Z,5.50
2023-05-16T05:04:17.885Z,4.30
2023-05-16T05:06:45.027Z,4.10
2023-05-16T05:09:12.082Z,4.00
2023-05-16T05:11:39.171Z,4.10
2023-05-16T05:14:06.178Z,3.50
2023-05-16T05:16:33.438Z,3.60
2023-05-16T05:19:00.884Z,4.30
2023-05-16T05:21:27.943Z,3.90
2023-05-16T05:23:55.072Z,4.00
2023-05-16T05:26:22.397Z,3.70
2023-05-16T05:29:00.999Z,3.90
2023-05-16T05:31:31.322Z,4.00
2023-05-16T05:33:58.363Z,4.20
2023-05-16T05:36:25.361Z,4.10
2023-05-16T05:38:52.397Z,3.70
2023-05-16T05:41:19.399Z,3.90
2023-05-16T05:43:46.352Z,4.10
2023-05-16T05:46:13.478Z,3.60
2023-05-16T05:48:40.670Z,3.80
2023-05-16T05:51:07.689Z,3.60
2023-05-16T05:53:34.814Z,2.90
2023-05-16T05:56:01.719Z,3.10
2023-05-16T05:58:28.942Z,3.30
2023-05-16T06:00:56.159Z,4.30
2023-05-16T06:03:23.259Z,3.90
2023-05-16T06:05:50.348Z,3.30
2023-05-16T06:08:17.294Z,3.50
2023-05-16T06:10:44.312Z,3.30
2023-05-16T06:13:11.526Z,3.70
2023-05-16T06:15:38.702Z,3.80
2023-05-16T06:18:05.873Z,3.80
2023-05-16T06:20:32.928Z,3.80
2023-05-16T06:22:59.874Z,3.50
2023-05-16T06:25:27.075Z,3.90
2023-05-16T06:27:54.291Z,3.50
2023-05-16T06:30:21.419Z,3.40
2023-05-16T06:32:48.618Z,3.40
2023-05-16T06:35:15.747Z,4.20
2023-05-16T06:37:43.068Z,3.20
2023-05-16T06:40:11.432Z,3.40
2023-05-16T06:42:41.740Z,3.70
2023-05-16T06:45:09.543Z,3.60
2023-05-16T06:47:36.748Z,3.80
2023-05-16T06:50:04.984Z,3.50
2023-05-16T06:52:32.198Z,3.90
2023-05-16T06:54:59.322Z,4.70
2023-05-16T06:57:26.350Z,4.90
2023-05-16T06:59:53.325Z,4.90
2023-05-16T07:02:20.734Z,4.10
2023-05-16T07:04:48.342Z,4.90
2023-05-16T07:07:15.823Z,4.20
2023-05-16T07:09:43.425Z,4.10
2023-05-16T07:12:10.484Z,4.20
2023-05-16T07:14:37.630Z,4.50
2023-05-16T07:17:05.058Z,4.30
2023-05-16T07:19:32.223Z,3.90
2023-05-16T07:21:59.364Z,4.20
2023-05-16T07:24:26.488Z,4.20
2023-05-16T07:26:53.533Z,4.60
2023-05-16T07:29:20.799Z,4.70
2023-05-16T07:31:47.880Z,4.60
2023-05-16T07:34:15.061Z,4.70
2023-05-16T07:36:42.289Z,4.20
2023-05-16T07:39:09.350Z,4.30
2023-05-16T07:41:36.354Z,4.10
2023-05-16T07:44:03.460Z,4.40
2023-05-16T07:46:30.634Z,4.00
2023-05-16T07:48:57.852Z,3.60
2023-05-16T07:51:24.854Z,3.70
2023-05-16T07:53:52.135Z,4.10
2023-05-16T07:56:19.235Z,3.70
2023-05-16T07:58:46.383Z,3.10
2023-05-16T08:01:13.542Z,4.00
2023-05-16T08:03:40.627Z,3.60
2023-05-16T08:06:07.994Z,3.30
2023-05-16T08:08:35.527Z,3.70
2023-05-16T08:11:02.627Z,4.10
2023-05-16T08:13:29.871Z,3.90
2023-05-16T08:15:56.970Z,3.60
2023-05-16T08:18:24.336Z,4.20
2023-05-16T08:20:51.750Z,3.60
2023-05-16T08:23:19.134Z,4.10
2023-05-16T08:25:46.767Z,4.00
2023-05-16T08:28:14.115Z,4.40
2023-05-16T08:30:42.785Z,4.10
2023-05-16T08:33:10.752Z,4.60
2023-05-16T08:35:38.010Z,4.70
2023-05-16T08:38:05.220Z,4.00
2023-05-16T08:40:32.550Z,4.80
2023-05-16T08:42:59.723Z,5.30
2023-05-16T08:45:27.241Z,4.60
2023-05-16T08:47:57.767Z,4.50
2023-05-16T08:50:25.621Z,5.70
2023-05-16T08:52:53.321Z,5.40
2023-05-16T08:55:21.786Z,5.30
2023-05-16T08:57:51.198Z,4.60
2023-05-16T09:00:19.571Z,5.00
2023-05-16T09:02:46.809Z,5.70
2023-05-16T09:05:15.148Z,5.70
2023-05-16T09:07:42.731Z,6.00
2023-05-16T09:10:11.091Z,5.60
2023-05-16T09:12:39.816Z,5.50
2023-05-16T09:15:08.470Z,5.30
2023-05-16T09:17:42.346Z,4.50
2023-05-16T09:20:13.706Z,4.90
2023-05-16T09:22:41.333Z,4.80
2023-05-16T09:25:18.361Z,5.60
2023-05-16T09:27:56.090Z,5.20
2023-05-16T09:30:26.563Z,4.60
2023-05-16T09:32:54.018Z,4.50
2023-05-16T09:35:35.202Z,5.30
2023-05-16T09:38:14.916Z,4.50
2023-05-16T09:40:42.638Z,4.90
2023-05-16T09:43:10.083Z,4.70
2023-05-16T09:45:37.341Z,4.60
2023-05-16T09:48:09.237Z,5.50
2023-05-16T09:50:37.931Z,4.60
2023-05-16T09:53:05.438Z,4.50
2023-05-16T09:55:32.869Z,5.60
2023-05-16T09:58:00.032Z,5.40
2023-05-16T10:00:31.690Z,5.40
2023-05-16T10:03:00.940Z,5.20
2023-05-16T10:05:31.336Z,5.20
2023-05-16T10:07:58.613Z,5.30
2023-05-16T10:10:25.961Z,4.60
2023-05-16T10:12:53.174Z,5.00
2023-05-16T10:15:20.609Z,4.20
2023-05-16T10:17:51.941Z,4.10
2023-05-16T10:20:19.165Z,4.00
2023-05-16T10:22:46.288Z,4.30
2023-05-16T10:25:16.283Z,3.80
2023-05-16T10:27:43.589Z,4.20
2023-05-16T10:30:11.468Z,4.10
2023-05-16T10:32:41.236Z,4.80
2023-05-16T10:35:10.140Z,4.30
2023-05-16T10:37:37.367Z,4.00
2023-05-16T10:40:06.545Z,4.10
2023-05-16T10:42:34.012Z,4.00
2023-05-16T10:45:17.422Z,4.10
2023-05-16T10:47:57.407Z,3.90
2023-05-16T10:50:41.649Z,3.60
2023-05-16T10:53:24.037Z,4.00
2023-05-16T10:55:51.765Z,3.60
2023-05-16T10:58:40.035Z,3.70
2023-05-16T11:01:30.431Z,3.70
2023-05-16T11:03:57.927Z,3.30
2023-05-16T11:06:29.094Z,3.40
2023-05-16T11:09:11.572Z,3.70
2023-05-16T11:11:49.374Z,3.50
2023-05-16T11:14:26.242Z,3.50
2023-05-16T11:17:06.697Z,3.60
2023-05-16T11:19:45.417Z,3.50
2023-05-16T11:22:32.714Z,3.30
2023-05-16T11:25:04.547Z,3.40
2023-05-16T11:30:06.579Z,3.70
2023-05-16T11:32:34.994Z,6.50
2023-05-16T11:35:05.443Z,3.30
2023-05-16T11:37:32.654Z,3.70
2023-05-16T11:40:04.564Z,3.30
2023-05-16T11:42:34.560Z,3.40
2023-05-16T11:45:09.130Z,3.50
2023-05-16T11:47:40.210Z,3.30
2023-05-16T11:50:10.202Z,3.60
2023-05-16T11:52:37.687Z,3.90
2023-05-16T11:55:11.044Z,4.40
2023-05-16T11:57:44.021Z,4.50
2023-05-16T12:00:16.532Z,4.90
2023-05-16T12:02:45.314Z,5.50
2023-05-16T12:05:13.038Z,5.80
2023-05-16T12:07:41.078Z,6.40
2023-05-16T12:10:09.649Z,7.20
2023-05-16T12:12:37.347Z,6.80
2023-05-16T12:15:06.779Z,5.80
2023-05-16T12:17:36.871Z,6.30
2023-05-16T12:20:07.968Z,5.80
2023-05-16T12:22:35.564Z,4.80
2023-05-16T12:25:31.115Z,4.00
2023-05-16T12:27:59.825Z,4.20
2023-05-16T12:30:28.041Z,4.10
2023-05-16T12:33:05.063Z,4.40
2023-05-16T12:35:34.646Z,4.20
2023-05-16T12:38:06.006Z,3.70
2023-05-16T12:40:33.461Z,3.70
2023-05-16T12:43:00.880Z,3.70
2023-05-16T12:45:28.317Z,3.90
2023-05-16T12:47:55.930Z,3.60
2023-05-16T12:50:23.291Z,4.00
2023-05-16T12:52:55.022Z,3.70
2023-05-16T12:55:22.613Z,4.20
2023-05-16T12:57:50.244Z,3.50
2023-05-16T13:00:19.271Z,3.70
2023-05-16T13:02:47.763Z,3.60
2023-05-16T13:05:15.360Z,3.60
2023-05-16T13:07:42.996Z,4.10
2023-05-16T13:10:11.480Z,4.30
2023-05-16T13:12:41.610Z,4.00
2023-05-16T13:15:09.907Z,4.10
2023-05-16T13:17:37.869Z,3.70
2023-05-16T13:20:10.615Z,3.80
2023-05-16T13:22:37.951Z,3.70
2023-05-16T13:25:06.496Z,4.20
2023-05-16T13:27:34.352Z,3.60
2023-05-16T13:30:01.721Z,4.50
2023-05-16T13:32:29.112Z,3.70
2023-05-16T13:34:56.972Z,3.80
2023-05-16T13:37:27.031Z,4.00
2023-05-16T13:39:57.188Z,3.90
2023-05-16T13:42:24.516Z,4.00
2023-05-16T13:44:51.776Z,3.70
2023-05-16T13:47:19.160Z,3.90
2023-05-16T13:49:46.373Z,3.90
2023-05-16T13:52:13.683Z,3.70
2023-05-16T13:54:41.736Z,3.80
2023-05-16T13:57:09.045Z,4.60
2023-05-16T14:02:06.935Z,3.80
2023-05-16T14:04:34.369Z,4.00
2023-05-16T14:07:01.817Z,4.70
2023-05-16T14:09:29.243Z,3.60
2023-05-16T14:11:56.741Z,3.80
2023-05-16T14:14:24.078Z,3.30
2023-05-16T14:16:51.830Z,3.80
2023-05-16T14:19:19.879Z,3.70
2023-05-16T14:21:47.260Z,3.90
2023-05-16T14:24:14.596Z,4.00
2023-05-16T14:26:41.948Z,3.90
2023-05-16T14:29:13.155Z,3.40
2023-05-16T14:31:41.224Z,3.20
2023-05-16T14:34:08.383Z,3.60
2023-05-16T14:36:35.757Z,3.60
2023-05-16T14:39:03.181Z,3.80
2023-05-16T14:41:30.289Z,3.30
2023-05-16T14:43:57.431Z,3.30
2023-05-16T14:46:24.964Z,3.30
2023-05-16T14:48:52.790Z,3.50
2023-05-16T14:51:21.430Z,3.50
2023-05-16T14:53:48.693Z,3.70
2023-05-16T14:56:16.115Z,3.30
2023-05-16T14:58:43.538Z,4.60
2023-05-16T15:01:11.228Z,3.70
2023-05-16T15:03:53.571Z,3.60
2023-05-16T15:06:22.525Z,3.80
2023-05-16T15:08:49.947Z,3.10
2023-05-16T15:11:17.552Z,3.80
2023-05-16T15:13:46.637Z,3.40
2023-05-16T15:16:14.229Z,4.40
2023-05-16T15:18:42.084Z,3.90
2023-05-16T15:21:09.524Z,3.70
2023-05-16T15:23:36.916Z,4.10
2023-05-16T15:26:04.650Z,4.00
2023-05-16T15:28:31.871Z,3.80
2023-05-16T15:30:59.193Z,3.60
2023-05-16T15:33:26.497Z,3.60
2023-05-16T15:35:54.122Z,3.30
2023-05-16T15:38:21.462Z,3.60
2023-05-16T15:40:52.765Z,3.90
2023-05-16T15:43:25.388Z,3.60
2023-05-16T15:45:52.850Z,3.30
2023-05-16T15:48:20.639Z,3.70
2023-05-16T15:50:47.916Z,4.50
2023-05-16T15:53:15.190Z,3.50
2023-05-16T15:55:42.595Z,3.40
2023-05-16T15:58:09.887Z,3.30
2023-05-16T16:00:37.193Z,3.30
2023-05-16T16:03:04.593Z,3.60
2023-05-16T16:05:32.050Z,3.00
2023-05-16T16:07:59.405Z,2.90
2023-05-16T16:10:27.272Z,3.30
2023-05-16T16:13:04.170Z,3.00
2023-05-16T16:15:33.376Z,3.60
2023-05-16T16:18:01.098Z,3.70
2023-05-16T16:20:28.679Z,3.30
2023-05-16T16:22:55.925Z,3.50
2023-05-16T16:25:23.223Z,3.50
2023-05-16T16:27:51.524Z,3.30
2023-05-16T16:30:18.852Z,3.30
2023-05-16T16:32:48.936Z,3.80
2023-05-16T16:35:16.595Z,3.50
2023-05-16T16:37:54.596Z,3.60
2023-05-16T16:40:31.122Z,4.30
2023-05-16T16:42:58.973Z,3.20
2023-05-16T16:45:27.397Z,3.60
2023-05-16T16:47:55.105Z,3.70
2023-05-16T16:50:22.285Z,3.30
2023-05-16T16:52:49.535Z,3.40
2023-05-16T16:55:16.934Z,2.90
2023-05-16T16:57:44.119Z,3.30
2023-05-16T17:00:11.942Z,3.80
2023-05-16T17:02:39.490Z,4.60
2023-05-16T17:05:07.048Z,3.70
2023-05-16T17:07:34.291Z,3.20
2023-05-16T17:10:04.067Z,4.80
2023-05-16T17:12:34.616Z,3.80
2023-05-16T17:15:02.323Z,3.20
2023-05-16T17:17:29.731Z,3.80
2023-05-16T17:19:57.048Z,4.30
2023-05-16T17:22:24.208Z,3.60
2023-05-16T17:24:51.540Z,3.80
2023-05-16T17:27:18.720Z,3.60
2023-05-16T17:29:47.436Z,3.80
2023-05-16T17:32:14.676Z,4.00
2023-05-16T17:34:41.950Z,4.20
2023-05-16T17:37:10.813Z,4.30
2023-05-16T17:39:38.998Z,3.80
2023-05-16T17:42:06.368Z,4.30
2023-05-16T17:44:33.624Z,4.80
2023-05-16T17:47:00.772Z,5.10
2023-05-16T17:49:27.981Z,4.80
2023-05-16T17:51:56.635Z,4.70
2023-05-16T17:54:24.327Z,4.80
2023-05-16T17:56:51.452Z,4.40
2023-05-16T17:59:19.485Z,4.10
2023-05-16T18:01:47.696Z,4.00
2023-05-16T18:04:15.049Z,3.70
2023-05-16T18:06:42.584Z,3.90
2023-05-16T18:09:10.560Z,3.70
2023-05-16T18:11:39.257Z,3.80
2023-05-16T18:14:08.976Z,4.00
2023-05-16T18:16:36.279Z,3.90
2023-05-16T18:19:05.119Z,4.00
2023-05-16T18:21:32.542Z,5.90
2023-05-16T18:24:00.094Z,3.80
2023-05-16T18:26:30.804Z,4.60
2023-05-16T18:28:59.374Z,4.00
2023-05-16T18:31:26.676Z,3.80
2023-05-16T18:33:53.820Z,3.60
2023-05-16T18:36:21.120Z,3.80
2023-05-16T18:38:48.304Z,3.90
2023-05-16T18:41:16.805Z,3.90
2023-05-16T18:43:44.159Z,4.00
2023-05-16T18:46:11.882Z,3.70
2023-05-16T18:48:39.316Z,3.80
2023-05-16T18:51:06.785Z,3.20
2023-05-16T18:53:34.152Z,3.30
2023-05-16T18:56:01.748Z,3.20
2023-05-16T18:58:28.889Z,4.20
2023-05-16T19:00:56.498Z,3.40
2023-05-16T19:03:23.928Z,3.30
2023-05-16T19:05:51.435Z,4.00
2023-05-16T19:08:18.895Z,3.50
2023-05-16T19:10:47.858Z,3.90
2023-05-16T19:13:15.153Z,3.30
2023-05-16T19:15:44.828Z,3.60
2023-05-16T19:18:13.198Z,3.80
2023-05-16T19:20:40.955Z,3.70
2023-05-16T19:23:08.630Z,4.40
2023-05-16T19:25:35.764Z,4.00
2023-05-16T19:28:03.657Z,4.30
2023-05-16T19:30:30.984Z,4.10
2023-05-16T19:32:58.240Z,3.80
2023-05-16T19:35:25.620Z,3.50
2023-05-16T19:37:53.283Z,3.60
2023-05-16T19:40:20.497Z,3.70
2023-05-16T19:42:47.870Z,3.30
2023-05-16T19:45:16.569Z,3.70
2023-05-16T19:47:44.006Z,3.80
2023-05-16T19:50:11.223Z,5.00
2023-05-16T19:52:38.597Z,4.60
2023-05-16T19:55:07.900Z,4.40
2023-05-16T19:57:35.127Z,4.70
2023-05-16T20:00:02.833Z,4.30
2023-05-16T20:02:39.770Z,4.00
2023-05-16T20:05:07.590Z,4.90
2023-05-16T20:07:34.953Z,4.00
2023-05-16T20:10:04.161Z,4.50
2023-05-16T20:12:31.640Z,4.10
2023-05-16T20:14:58.889Z,4.40
2023-05-16T20:17:28.806Z,4.10
2023-05-16T20:19:56.211Z,4.40
2023-05-16T20:22:23.311Z,4.70
2023-05-16T20:24:50.463Z,5.10
2023-05-16T20:27:17.704Z,5.00
2023-05-16T20:29:44.893Z,4.90
2023-05-16T20:32:12.210Z,4.10
2023-05-16T20:34:41.536Z,3.80
2023-05-16T20:37:09.082Z,3.80
2023-05-16T20:39:36.442Z,3.80
2023-05-16T20:42:04.299Z,4.10
2023-05-16T20:44:33.786Z,4.80
2023-05-16T20:47:00.902Z,4.40
2023-05-16T20:49:28.023Z,4.50
2023-05-16T20:51:55.087Z,4.00
2023-05-16T20:54:22.297Z,3.90
2023-05-16T20:56:49.466Z,3.70
2023-05-16T20:59:16.634Z,10.20
2023-05-16T21:01:43.891Z,4.40
2023-05-16T21:04:11.247Z,5.10
2023-05-16T21:06:38.355Z,4.30
2023-05-16T21:09:05.995Z,4.10
2023-05-16T21:11:34.130Z,4.30
2023-05-16T21:14:01.400Z,5.80
2023-05-16T21:16:30.213Z,4.40
2023-05-16T21:18:57.638Z,4.40
2023-05-16T21:21:24.901Z,4.30
2023-05-16T21:23:52.392Z,4.30
2023-05-16T21:26:19.742Z,4.80
2023-05-16T21:33:45.724Z,6.80
2023-05-16T21:36:12.999Z,7.50
2023-05-16T21:38:40.301Z,8.20
2023-05-16T21:41:07.414Z,8.10
2023-05-16T21:43:34.488Z,8.70
2023-05-16T21:46:01.539Z,8.90
2023-05-16T21:48:28.640Z,7.70
2023-05-16T21:50:55.830Z,8.40
2023-05-16T21:53:25.206Z,7.60
2023-05-16T21:55:52.348Z,8.10
2023-05-16T21:58:19.429Z,6.90
2023-05-16T22:00:46.487Z,7.10
2023-05-16T22:03:13.653Z,6.40
2023-05-16T22:05:40.627Z,6.00
2023-05-16T22:08:08.203Z,5.50
2023-05-16T22:10:35.263Z,5.60
2023-05-16T22:13:02.285Z,5.50
2023-05-16T22:15:29.605Z,5.50
2023-05-16T22:17:57.762Z,5.10
2023-05-16T22:20:26.680Z,5.30
2023-05-16T22:22:53.839Z,4.60
2023-05-16T22:25:20.975Z,5.90
2023-05-16T22:27:47.950Z,4.80
2023-05-16T22:30:15.059Z,4.70
2023-05-16T22:32:42.381Z,4.80
2023-05-16T22:35:09.652Z,5.30
2023-05-16T22:37:36.631Z,5.50
2023-05-16T22:40:04.049Z,5.30
2023-05-16T22:42:31.618Z,4.90
2023-05-16T22:44:58.666Z,5.20
2023-05-16T22:47:25.927Z,4.70
2023-05-16T22:49:53.191Z,4.90
2023-05-16T22:52:22.141Z,4.80
2023-05-16T22:54:49.172Z,4.40
2023-05-16T22:57:16.311Z,4.50
2023-05-16T22:59:43.296Z,4.40
2023-05-16T23:02:10.463Z,5.10
2023-05-16T23:04:37.510Z,5.10
2023-05-16T23:07:04.713Z,4.60
2023-05-16T23:09:31.776Z,4.90
2023-05-16T23:11:59.322Z,5.60
2023-05-16T23:14:26.513Z,5.10
2023-05-16T23:16:53.537Z,5.50
2023-05-16T23:19:20.673Z,5.30
2023-05-16T23:21:47.796Z,4.50
2023-05-16T23:24:14.873Z,5.00
2023-05-16T23:26:41.801Z,4.90
2023-05-16T23:29:08.737Z,5.50
2023-05-16T23:31:35.761Z,6.00
2023-05-16T23:34:02.854Z,5.80
2023-05-16T23:36:29.900Z,5.60
2023-05-16T23:38:56.967Z,5.90
2023-05-16T23:41:23.979Z,5.70
2023-05-16T23:43:51.122Z,5.80
2023-05-16T23:46:18.190Z,5.80
2023-05-16T23:48:46.076Z,5.50
2023-05-16T23:51:13.312Z,5.60
2023-05-16T23:53:40.419Z,5.50
2023-05-16T23:56:07.863Z,6.10
2023-05-16T23:58:34.963Z,5.60
